Time;durP1;ratioP1;P1;durP2;ratioP2;P2;SDS_P1;SDS_P2;PMS_P1;PMS_P2;Temp;Humidity;BMP_temperature;BMP_pressure;BME280_temperature;BME280_humidity;BME280_pressure;Samples;Min_cycle;Max_cycle;Signal;HPM_P1;HPM_P2
2021/12/06 00:02:20;;;;;;;9.82;4.95;;;2.10;91.90;;;;;;4971161;28;20041;-78
2021/12/06 00:04:45;;;;;;;9.98;4.68;;;2.10;91.60;;;;;;4970503;28;20034;-79
2021/12/06 00:07:15;;;;;;;6.35;4.00;;;2.10;91.60;;;;;;4984845;28;20411;-80
2021/12/06 00:09:40;;;;;;;7.13;4.03;;;2.10;91.60;;;;;;4982372;28;20064;-78
2021/12/06 00:12:07;;;;;;;7.50;4.75;;;2.10;91.60;;;;;;4983016;28;20058;-79
2021/12/06 00:14:35;;;;;;;11.55;4.90;;;2.10;91.70;;;;;;4951289;28;20114;-78
2021/12/06 00:17:05;;;;;;;7.75;5.22;;;2.10;91.70;;;;;;4977557;28;20039;-78
2021/12/06 00:19:30;;;;;;;8.75;4.68;;;2.10;91.70;;;;;;4961817;28;20045;-79
2021/12/06 00:21:57;;;;;;;11.50;3.92;;;2.10;91.70;;;;;;4970129;28;20497;-79
2021/12/06 00:24:22;;;;;;;13.93;4.90;;;2.10;91.70;;;;;;4983789;28;20514;-79
2021/12/06 00:26:48;;;;;;;14.85;4.90;;;2.10;91.70;;;;;;4957226;28;20034;-79
2021/12/06 00:29:14;;;;;;;8.75;4.50;;;2.10;91.70;;;;;;4960230;28;20043;-79
2021/12/06 00:31:39;;;;;;;5.20;3.58;;;2.10;91.70;;;;;;4967300;28;20030;-79
2021/12/06 00:34:10;;;;;;;7.85;4.22;;;2.10;91.70;;;;;;4981521;28;20026;-80
2021/12/06 00:36:38;;;;;;;7.13;3.67;;;2.10;91.70;;;;;;4949795;28;20026;-78
2021/12/06 00:39:05;;;;;;;13.98;5.30;;;2.10;91.70;;;;;;4960557;28;20568;-78
2021/12/06 00:41:30;;;;;;;13.30;4.43;;;2.10;91.70;;;;;;4975951;28;20528;-79
2021/12/06 00:43:56;;;;;;;9.23;5.13;;;2.10;91.70;;;;;;4974892;28;20031;-79
2021/12/06 00:46:22;;;;;;;9.15;4.65;;;2.10;91.70;;;;;;4972350;28;20096;-79
2021/12/06 00:48:47;;;;;;;7.18;4.35;;;2.00;91.70;;;;;;4962232;28;20695;-78
2021/12/06 00:51:15;;;;;;;10.55;4.65;;;2.10;91.70;;;;;;4997364;28;20022;-79
2021/12/06 00:53:40;;;;;;;7.68;4.57;;;2.10;91.80;;;;;;4975517;28;20033;-79
2021/12/06 00:56:07;;;;;;;78.82;6.43;;;2.10;91.80;;;;;;4993318;28;20035;-79
2021/12/06 00:58:32;;;;;;;38.63;5.63;;;2.10;91.80;;;;;;4958493;28;20125;-79
2021/12/06 01:00:58;;;;;;;32.42;5.03;;;2.10;91.80;;;;;;4959081;28;20747;-79
2021/12/06 01:03:28;;;;;;;12.10;4.20;;;2.10;91.80;;;;;;4988335;28;20052;-80
2021/12/06 01:05:54;;;;;;;8.05;3.72;;;2.10;91.80;;;;;;4981875;28;20038;-78
2021/12/06 01:08:19;;;;;;;49.22;5.55;;;2.00;91.70;;;;;;4987655;28;20624;-80
2021/12/06 01:10:45;;;;;;;46.05;6.35;;;2.00;91.70;;;;;;4961305;28;20658;-79
2021/12/06 01:13:11;;;;;;;9.35;4.05;;;2.00;91.70;;;;;;5007836;28;20038;-78
2021/12/06 01:15:37;;;;;;;24.48;5.03;;;2.00;91.80;;;;;;4972043;28;20050;-78
2021/12/06 01:18:03;;;;;;;21.17;4.55;;;2.00;91.80;;;;;;5002402;28;20042;-80
2021/12/06 01:20:31;;;;;;;16.45;4.78;;;2.00;91.80;;;;;;4980273;28;20431;-79
2021/12/06 01:23:06;;;;;;;34.20;6.20;;;2.00;91.80;;;;;;4994852;28;20121;-79
2021/12/06 01:25:42;;;;;;;31.65;5.90;;;2.10;91.90;;;;;;4993706;28;20098;-78
2021/12/06 01:31:19;;;;;;;35.15;5.80;;;2.00;91.90;;;;;;4942091;28;20085;-78
2021/12/06 01:34:09;;;;;;;;;;;2.00;91.90;;;;;;4980748;28;20037;-80
2021/12/06 01:39:21;;;;;;;40.22;6.47;;;2.00;91.80;;;;;;4963593;28;20636;-79
2021/12/06 01:41:48;;;;;;;61.25;7.38;;;2.00;91.80;;;;;;4989774;28;20022;-78
2021/12/06 01:44:30;;;;;;;29.13;6.35;;;2.00;91.90;;;;;;4967365;28;20042;-78
2021/12/06 01:47:04;;;;;;;21.77;7.63;;;2.00;91.90;;;;;;4996038;28;20135;-79
2021/12/06 01:49:32;;;;;;;33.10;5.82;;;2.00;91.90;;;;;;4983600;28;20092;-78
2021/12/06 01:52:00;;;;;;;25.73;6.10;;;2.00;91.90;;;;;;4969965;28;20034;-79
2021/12/06 01:54:25;;;;;;;37.47;6.97;;;2.00;92.00;;;;;;4980458;28;20030;-78
2021/12/06 01:56:51;;;;;;;62.78;7.90;;;2.10;92.00;;;;;;4977914;28;20540;-79
2021/12/06 01:59:16;;;;;;;48.67;6.30;;;2.00;92.00;;;;;;4965108;28;20042;-79
2021/12/06 02:01:42;;;;;;;56.13;6.38;;;2.00;92.00;;;;;;4963347;28;20041;-79
2021/12/06 02:04:08;;;;;;;21.25;5.45;;;2.00;92.00;;;;;;4986561;28;20033;-78
2021/12/06 02:06:33;;;;;;;32.28;5.40;;;2.00;92.00;;;;;;4956870;28;20033;-79
2021/12/06 02:08:59;;;;;;;32.03;6.55;;;2.00;92.00;;;;;;4968077;28;20621;-79
2021/12/06 02:11:27;;;;;;;13.55;5.38;;;2.00;92.10;;;;;;4972853;28;20069;-78
2021/12/06 02:14:10;;;;;;;28.48;5.47;;;2.10;92.10;;;;;;4975486;28;20131;-80
2021/12/06 02:16:59;;;;;;;7.72;4.32;;;2.10;92.10;;;;;;4980099;28;20466;-79
2021/12/06 02:19:29;;;;;;;17.75;5.18;;;2.00;92.00;;;;;;4992792;28;20042;-80
2021/12/06 02:21:54;;;;;;;11.02;4.68;;;2.00;92.10;;;;;;4963094;28;20034;-79
2021/12/06 02:24:20;;;;;;;10.05;4.75;;;2.00;92.10;;;;;;4988406;28;20026;-79
2021/12/06 02:26:45;;;;;;;9.57;4.75;;;2.00;92.10;;;;;;4982683;28;20143;-79
2021/12/06 02:29:11;;;;;;;16.85;5.03;;;2.00;92.10;;;;;;4992315;28;20376;-79
2021/12/06 02:31:37;;;;;;;20.40;4.82;;;2.10;92.20;;;;;;4981216;28;20038;-79
2021/12/06 02:34:02;;;;;;;6.80;4.55;;;2.10;92.20;;;;;;4965359;28;20040;-79
2021/12/06 02:36:28;;;;;;;15.85;5.10;;;2.10;92.20;;;;;;4961434;28;20400;-80
2021/12/06 02:38:53;;;;;;;10.15;4.65;;;2.10;92.20;;;;;;4968711;28;20036;-80
2021/12/06 02:41:19;;;;;;;17.38;5.95;;;2.10;92.20;;;;;;4965587;28;20031;-79
2021/12/06 02:43:45;;;;;;;17.98;5.65;;;2.10;92.20;;;;;;4980159;28;20636;-79
2021/12/06 02:46:10;;;;;;;13.43;5.32;;;2.10;92.20;;;;;;4991602;28;20144;-79
2021/12/06 02:48:36;;;;;;;8.88;5.20;;;2.10;92.20;;;;;;4971565;28;20033;-79
2021/12/06 02:51:04;;;;;;;7.25;4.68;;;2.10;92.10;;;;;;4975589;28;20018;-79
2021/12/06 02:53:31;;;;;;;8.50;5.35;;;2.10;92.10;;;;;;4974016;28;20459;-79
2021/12/06 02:55:59;;;;;;;7.28;4.68;;;2.10;92.20;;;;;;4970693;28;20487;-79
2021/12/06 03:01:22;;;;;;;7.22;4.72;;;2.20;92.10;;;;;;4971745;28;20100;-80
2021/12/06 03:03:47;;;;;;;8.18;4.82;;;2.10;92.10;;;;;;4972586;28;20107;-80
2021/12/06 03:06:14;;;;;;;7.82;5.00;;;2.20;92.10;;;;;;4960707;28;20512;-79
2021/12/06 03:08:48;;;;;;;12.98;5.70;;;2.20;92.20;;;;;;4963506;28;20892;-79
2021/12/06 03:11:19;;;;;;;11.68;5.63;;;2.20;92.20;;;;;;4986011;28;20100;-79
2021/12/06 03:13:44;;;;;;;;;;;2.20;92.20;;;;;;4969321;28;20069;-79
2021/12/06 03:16:10;;;;;;;14.10;5.38;;;2.20;92.20;;;;;;4986268;28;19957;-78
2021/12/06 03:18:36;;;;;;;10.55;5.80;;;2.20;92.10;;;;;;4969119;28;20619;-78
2021/12/06 03:21:02;;;;;;;7.22;4.32;;;2.20;92.10;;;;;;4988726;28;20030;-79
2021/12/06 03:23:27;;;;;;;11.82;5.47;;;2.20;92.10;;;;;;4980156;28;20045;-79
2021/12/06 03:25:53;;;;;;;19.13;6.00;;;2.20;92.10;;;;;;4936233;28;20041;-80
2021/12/06 03:28:18;;;;;;;21.35;5.90;;;2.20;92.10;;;;;;4975119;28;20038;-79
2021/12/06 03:30:44;;;;;;;21.45;5.90;;;2.20;92.10;;;;;;4989728;28;20201;-79
2021/12/06 03:33:09;;;;;;;29.67;6.10;;;2.20;92.10;;;;;;4969747;28;20041;-79
2021/12/06 03:35:35;;;;;;;12.05;5.57;;;2.20;92.10;;;;;;4970253;28;20034;-79
2021/12/06 03:38:00;;;;;;;11.50;5.63;;;2.20;92.20;;;;;;4980090;28;20077;-79
2021/12/06 03:40:26;;;;;;;13.25;6.00;;;2.20;92.20;;;;;;4985742;28;20038;-79
2021/12/06 03:42:52;;;;;;;8.90;5.03;;;2.20;92.20;;;;;;4974192;28;20693;-79
2021/12/06 03:45:17;;;;;;;12.60;5.40;;;2.20;92.20;;;;;;4977830;28;20440;-79
2021/12/06 03:47:43;;;;;;;9.02;5.03;;;2.20;92.20;;;;;;4963175;28;20054;-79
2021/12/06 03:50:09;;;;;;;8.32;5.28;;;2.30;92.20;;;;;;4979422;28;20035;-79
2021/12/06 03:52:34;;;;;;;9.85;6.15;;;2.20;92.20;;;;;;4941285;28;20089;-79
2021/12/06 03:55:00;;;;;;;12.20;6.13;;;2.20;92.20;;;;;;4935200;28;20054;-78
2021/12/06 03:57:26;;;;;;;11.75;4.90;;;2.20;92.20;;;;;;4956460;28;20045;-79
2021/12/06 03:59:52;;;;;;;11.35;6.22;;;2.20;92.20;;;;;;4973655;28;20124;-79
2021/12/06 04:02:18;;;;;;;11.68;6.50;;;2.20;92.20;;;;;;4955059;28;20039;-79
2021/12/06 04:04:43;;;;;;;9.75;5.47;;;2.20;92.20;;;;;;4978750;28;20686;-80
2021/12/06 04:07:09;;;;;;;11.63;6.20;;;2.20;92.20;;;;;;4971094;28;20156;-79
2021/12/06 04:09:35;;;;;;;13.23;6.18;;;2.20;92.20;;;;;;4953556;28;20645;-80
2021/12/06 04:12:01;;;;;;;11.68;5.82;;;2.30;92.20;;;;;;4944656;28;20031;-80
2021/12/06 04:14:27;;;;;;;11.32;6.03;;;2.30;92.30;;;;;;4981456;28;20038;-78
2021/12/06 04:16:52;;;;;;;10.52;5.75;;;2.30;92.30;;;;;;4968808;28;20042;-78
2021/12/06 04:19:18;;;;;;;11.50;6.10;;;2.30;92.20;;;;;;4980945;28;20034;-79
2021/12/06 04:21:44;;;;;;;10.57;6.15;;;2.30;92.30;;;;;;4944506;28;20081;-79
2021/12/06 04:24:10;;;;;;;14.38;6.63;;;2.30;92.30;;;;;;4960194;28;20046;-78
2021/12/06 04:26:36;;;;;;;11.88;6.25;;;2.30;92.30;;;;;;4949405;28;20108;-78
2021/12/06 04:29:01;;;;;;;12.35;6.80;;;2.30;92.20;;;;;;4978256;28;20516;-79
2021/12/06 04:31:28;;;;;;;18.05;6.85;;;2.30;92.30;;;;;;4972053;28;20033;-78
2021/12/06 04:33:54;;;;;;;15.02;7.03;;;2.30;92.20;;;;;;4958295;28;20026;-78
2021/12/06 04:36:19;;;;;;;18.25;6.88;;;2.30;92.20;;;;;;4978221;28;20034;-79
2021/12/06 04:38:45;;;;;;;13.93;6.30;;;2.30;92.20;;;;;;4958214;28;20038;-79
2021/12/06 04:41:10;;;;;;;17.63;7.40;;;2.20;92.20;;;;;;4957373;28;20113;-80
2021/12/06 04:43:36;;;;;;;13.25;7.90;;;2.20;92.20;;;;;;4935711;28;20031;-79
2021/12/06 04:46:02;;;;;;;15.10;7.53;;;2.20;92.20;;;;;;4961028;28;20128;-80
2021/12/06 04:48:27;;;;;;;13.68;6.90;;;2.20;92.20;;;;;;4982610;28;20128;-80
2021/12/06 04:50:53;;;;;;;11.95;7.15;;;2.20;92.20;;;;;;4983816;28;20117;-79
2021/12/06 04:53:22;;;;;;;20.52;7.55;;;2.20;92.20;;;;;;4992337;28;20034;-79
2021/12/06 04:55:55;;;;;;;12.77;6.68;;;2.20;92.20;;;;;;4974623;28;20121;-79
2021/12/06 04:58:24;;;;;;;14.02;7.13;;;2.20;92.20;;;;;;4980935;28;20050;-78
2021/12/06 05:01:04;;;;;;;15.13;7.45;;;2.20;92.20;;;;;;4971829;28;20057;-78
2021/12/06 05:03:30;;;;;;;19.42;8.45;;;2.20;92.20;;;;;;4980188;28;20100;-80
2021/12/06 05:05:58;;;;;;;13.50;7.18;;;2.20;92.20;;;;;;4993840;28;20038;-80
2021/12/06 05:08:27;;;;;;;15.93;7.00;;;2.20;92.20;;;;;;4983800;28;20495;-78
2021/12/06 05:10:53;;;;;;;15.00;7.03;;;2.20;92.30;;;;;;4989399;28;20093;-80
2021/12/06 05:13:18;;;;;;;17.25;7.28;;;2.20;92.30;;;;;;4996739;28;20038;-79
2021/12/06 05:15:44;;;;;;;13.23;6.65;;;2.20;92.30;;;;;;4960044;28;20061;-79
2021/12/06 05:18:10;;;;;;;12.05;6.38;;;2.20;92.30;;;;;;4979838;28;20030;-80
2021/12/06 05:20:35;;;;;;;10.32;6.20;;;2.20;92.30;;;;;;4980295;28;20104;-79
2021/12/06 05:23:02;;;;;;;10.35;6.10;;;2.20;92.30;;;;;;4978900;28;20038;-79
2021/12/06 05:25:27;;;;;;;25.90;15.90;;;2.20;92.30;;;;;;4987890;28;20132;-79
2021/12/06 05:27:53;;;;;;;15.35;9.95;;;2.20;92.30;;;;;;4965468;28;20049;-79
2021/12/06 05:30:21;;;;;;;15.77;8.57;;;2.20;92.30;;;;;;4999623;28;20038;-79
2021/12/06 05:32:47;;;;;;;14.07;8.38;;;2.30;92.30;;;;;;4978055;28;20041;-80
2021/12/06 05:35:13;;;;;;;14.80;7.43;;;2.30;92.30;;;;;;4974811;28;20197;-79
2021/12/06 05:37:44;;;;;;;11.20;6.95;;;2.30;92.30;;;;;;4996210;28;20125;-79
2021/12/06 05:40:13;;;;;;;10.77;6.32;;;2.30;92.30;;;;;;4951031;28;20034;-79
2021/12/06 05:42:39;;;;;;;14.80;7.03;;;2.30;92.30;;;;;;4987488;28;20061;-78
2021/12/06 05:45:05;;;;;;;14.82;7.68;;;2.30;92.30;;;;;;4970161;28;20041;-78
2021/12/06 05:47:31;;;;;;;12.43;7.05;;;2.20;92.30;;;;;;4989878;28;20045;-79
2021/12/06 05:49:56;;;;;;;12.55;7.05;;;2.20;92.30;;;;;;4975378;28;20108;-78
2021/12/06 05:52:22;;;;;;;11.27;6.22;;;2.20;92.30;;;;;;4992003;28;20096;-78
2021/12/06 05:54:47;;;;;;;13.27;7.70;;;2.20;92.30;;;;;;4969427;28;20422;-79
2021/12/06 05:57:14;;;;;;;11.68;7.10;;;2.20;92.30;;;;;;4996615;28;20724;-79
2021/12/06 05:59:40;;;;;;;14.73;8.90;;;2.20;92.30;;;;;;4955025;28;21865;-78
2021/12/06 06:02:07;;;;;;;13.18;7.53;;;2.20;92.30;;;;;;4987514;28;20069;-78
2021/12/06 06:04:32;;;;;;;11.32;6.75;;;2.20;92.30;;;;;;4981480;28;20377;-78
2021/12/06 06:06:58;;;;;;;11.60;7.00;;;2.20;92.30;;;;;;4996599;28;20049;-78
2021/12/06 06:09:23;;;;;;;10.85;6.88;;;2.20;92.30;;;;;;4997909;28;20045;-78
2021/12/06 06:11:49;;;;;;;10.48;7.05;;;2.20;92.30;;;;;;4972022;28;20538;-78
2021/12/06 06:14:14;;;;;;;13.52;7.47;;;2.20;92.30;;;;;;4988513;28;20466;-79
2021/12/06 06:16:51;;;;;;;12.70;7.47;;;2.20;92.30;;;;;;4993607;28;20445;-78
2021/12/06 06:19:22;;;;;;;14.18;6.65;;;2.20;92.30;;;;;;4985110;28;20405;-79
2021/12/06 06:21:47;;;;;;;11.70;6.80;;;2.20;92.30;;;;;;4985045;28;20404;-78
2021/12/06 06:24:13;;;;;;;14.30;7.18;;;2.20;92.30;;;;;;4993642;28;20041;-77
2021/12/06 06:26:38;;;;;;;9.80;6.75;;;2.20;92.30;;;;;;4968309;28;20027;-79
2021/12/06 06:29:04;;;;;;;9.65;6.63;;;2.20;92.30;;;;;;4990481;28;20029;-79
2021/12/06 06:31:30;;;;;;;9.38;5.82;;;2.20;92.30;;;;;;4965043;28;20041;-79
2021/12/06 06:33:55;;;;;;;11.50;6.65;;;2.20;92.30;;;;;;4955554;28;20035;-78
2021/12/06 06:36:21;;;;;;;9.60;6.03;;;2.20;92.30;;;;;;4989899;28;20030;-80
2021/12/06 06:38:46;;;;;;;9.30;5.63;;;2.20;92.30;;;;;;4990884;28;20125;-78
2021/12/06 06:41:12;;;;;;;10.93;6.32;;;2.20;92.30;;;;;;4976762;28;20121;-80
2021/12/06 06:43:37;;;;;;;10.48;6.32;;;2.30;92.30;;;;;;4984789;28;20121;-79
2021/12/06 06:46:03;;;;;;;14.85;7.85;;;2.30;92.30;;;;;;4965673;28;20057;-80
2021/12/06 06:48:29;;;;;;;10.60;6.32;;;2.20;92.30;;;;;;5001045;28;20562;-79
2021/12/06 06:50:57;;;;;;;10.38;6.43;;;2.20;92.30;;;;;;5000304;28;20113;-80
2021/12/06 06:53:22;;;;;;;7.57;5.07;;;2.30;92.30;;;;;;5000584;28;20064;-79
2021/12/06 06:55:48;;;;;;;9.07;5.85;;;2.20;92.30;;;;;;5013609;28;20050;-80
2021/12/06 06:58:14;;;;;;;9.63;6.40;;;2.30;92.30;;;;;;5000463;28;20067;-80
2021/12/06 07:00:39;;;;;;;11.15;6.88;;;2.20;92.30;;;;;;4976521;28;20033;-81
2021/12/06 07:03:05;;;;;;;9.65;6.60;;;2.20;92.30;;;;;;5001217;28;20083;-79
2021/12/06 07:05:31;;;;;;;9.90;6.63;;;2.20;92.30;;;;;;4995379;28;20117;-79
2021/12/06 07:07:57;;;;;;;7.93;5.38;;;2.20;92.30;;;;;;5002680;28;20184;-79
2021/12/06 07:10:25;;;;;;;12.70;7.10;;;2.20;92.30;;;;;;4998212;28;20042;-80
2021/12/06 07:12:52;;;;;;;14.95;9.27;;;2.20;92.30;;;;;;4982625;28;20034;-80
2021/12/06 07:15:28;;;;;;;15.95;9.55;;;2.20;92.30;;;;;;4994127;28;20037;-80
2021/12/06 07:17:55;;;;;;;12.02;6.95;;;2.20;92.30;;;;;;4995326;28;20037;-80
2021/12/06 07:20:20;;;;;;;11.13;6.90;;;2.20;92.30;;;;;;5006258;28;20488;-80
2021/12/06 07:22:47;;;;;;;12.77;7.93;;;2.20;92.30;;;;;;4969638;28;20088;-80
2021/12/06 07:25:13;;;;;;;17.17;9.20;;;2.20;92.30;;;;;;4988788;28;20551;-81
2021/12/06 07:27:39;;;;;;;13.25;7.00;;;2.20;92.30;;;;;;4981871;28;20034;-79
2021/12/06 07:30:05;;;;;;;11.60;6.70;;;2.20;92.30;;;;;;4989257;28;20026;-80
2021/12/06 07:32:31;;;;;;;12.35;7.22;;;2.20;92.30;;;;;;4977325;28;20073;-79
2021/12/06 07:34:57;;;;;;;12.23;7.10;;;2.20;92.30;;;;;;4986633;28;20041;-80
2021/12/06 07:37:22;;;;;;;15.82;8.25;;;2.20;92.30;;;;;;4986463;28;20084;-79
2021/12/06 07:39:48;;;;;;;14.27;7.80;;;2.30;92.40;;;;;;4954179;28;20594;-80
2021/12/06 07:42:13;;;;;;;13.48;7.97;;;2.30;92.40;;;;;;5000134;28;20194;-80
2021/12/06 07:44:39;;;;;;;11.82;7.50;;;2.30;92.40;;;;;;4999866;28;20041;-80
2021/12/06 07:47:05;;;;;;;13.50;7.55;;;2.30;92.40;;;;;;4973304;28;20165;-79
2021/12/06 07:49:31;;;;;;;12.68;6.43;;;2.30;92.40;;;;;;5018143;28;20610;-80
2021/12/06 07:51:57;;;;;;;10.82;6.32;;;2.30;92.40;;;;;;4980988;28;20058;-81
2021/12/06 07:54:22;;;;;;;10.77;6.88;;;2.30;92.40;;;;;;4987526;28;20035;-80
2021/12/06 07:56:48;;;;;;;15.48;8.13;;;2.30;92.40;;;;;;4995781;28;20041;-80
2021/12/06 07:59:13;;;;;;;18.63;8.55;;;2.30;92.40;;;;;;5003063;28;20030;-81
2021/12/06 08:01:39;;;;;;;30.88;14.80;;;2.30;92.40;;;;;;4978297;28;20455;-80
2021/12/06 08:04:05;;;;;;;27.17;14.35;;;2.40;92.40;;;;;;4973892;28;20038;-81
2021/12/06 08:06:30;;;;;;;17.88;9.95;;;2.40;92.40;;;;;;4998993;28;20096;-81
2021/12/06 08:08:56;;;;;;;17.33;9.70;;;2.40;92.40;;;;;;5000366;28;20041;-80
2021/12/06 08:11:21;;;;;;;15.10;8.38;;;2.40;92.40;;;;;;5003173;28;20077;-80
2021/12/06 08:13:50;;;;;;;14.27;6.82;;;2.40;92.40;;;;;;4988787;28;20026;-80
2021/12/06 08:16:20;;;;;;;15.32;7.70;;;2.40;92.40;;;;;;4992928;28;20061;-80
2021/12/06 08:18:46;;;;;;;12.43;6.65;;;2.40;92.40;;;;;;5003153;28;20034;-80
2021/12/06 08:21:13;;;;;;;14.65;7.07;;;2.50;92.40;;;;;;4993896;28;20044;-80
2021/12/06 08:23:38;;;;;;;10.60;6.28;;;2.50;92.50;;;;;;4978269;28;20029;-80
2021/12/06 08:26:05;;;;;;;14.32;8.05;;;2.50;92.40;;;;;;4998435;28;20038;-79
2021/12/06 08:28:32;;;;;;;11.48;6.93;;;2.50;92.50;;;;;;4994819;28;20030;-79
2021/12/06 08:30:57;;;;;;;14.40;7.65;;;2.50;92.40;;;;;;4994186;28;20423;-79
2021/12/06 08:33:23;;;;;;;12.50;7.40;;;2.50;92.40;;;;;;4984026;28;20038;-80
2021/12/06 08:35:52;;;;;;;11.18;6.75;;;2.50;92.40;;;;;;4981317;28;20257;-80
2021/12/06 08:38:18;;;;;;;15.07;7.75;;;2.50;92.50;;;;;;4987006;28;20042;-79
2021/12/06 08:40:44;;;;;;;10.73;6.43;;;2.60;92.50;;;;;;4967042;28;20500;-79
2021/12/06 08:43:16;;;;;;;18.02;8.30;;;2.60;92.50;;;;;;4937648;28;20050;-80
2021/12/06 08:45:45;;;;;;;17.15;7.68;;;2.60;92.50;;;;;;4963083;28;20681;-79
2021/12/06 08:48:10;;;;;;;13.60;7.85;;;2.60;92.50;;;;;;4972499;28;20068;-80
2021/12/06 08:50:36;;;;;;;13.63;7.55;;;2.60;92.50;;;;;;5005121;28;20451;-80
2021/12/06 08:53:02;;;;;;;12.88;7.63;;;2.60;92.50;;;;;;4985600;28;20094;-81
2021/12/06 08:55:27;;;;;;;20.50;9.05;;;2.60;92.50;;;;;;4979638;28;20100;-80
2021/12/06 08:57:53;;;;;;;21.65;10.10;;;2.60;92.50;;;;;;4980199;28;20034;-79
2021/12/06 09:00:22;;;;;;;25.55;10.55;;;2.60;92.40;;;;;;5024694;28;20084;-79
2021/12/06 09:02:47;;;;;;;19.88;8.68;;;2.60;92.50;;;;;;4983028;28;20054;-81
2021/12/06 09:05:13;;;;;;;25.80;11.63;;;2.70;92.50;;;;;;4979704;28;20504;-80
2021/12/06 09:07:38;;;;;;;20.70;9.75;;;2.70;92.50;;;;;;4987898;28;20026;-80
2021/12/06 09:10:05;;;;;;;15.75;9.13;;;2.70;92.50;;;;;;4984823;28;20045;-80
2021/12/06 09:12:31;;;;;;;22.98;11.25;;;2.70;92.50;;;;;;4985454;28;20111;-79
2021/12/06 09:14:58;;;;;;;18.90;10.07;;;2.70;92.50;;;;;;4990584;28;20084;-79
2021/12/06 09:17:24;;;;;;;17.13;8.73;;;2.80;92.50;;;;;;5007091;28;20041;-79
2021/12/06 09:19:50;;;;;;;19.15;9.70;;;2.80;92.50;;;;;;5005665;28;20030;-80
2021/12/06 09:22:16;;;;;;;16.00;7.70;;;2.80;92.50;;;;;;5017664;28;20026;-79
2021/12/06 09:24:41;;;;;;;36.28;19.50;;;2.90;92.50;;;;;;5006092;28;20063;-81
2021/12/06 09:27:07;;;;;;;21.05;10.75;;;2.90;92.50;;;;;;4986558;28;20041;-80
2021/12/06 09:29:36;;;;;;;24.63;12.70;;;2.90;92.50;;;;;;4972297;28;20034;-80
2021/12/06 09:32:07;;;;;;;17.50;9.35;;;3.00;92.50;;;;;;5021969;28;20631;-78
2021/12/06 09:34:32;;;;;;;16.10;8.63;;;3.00;92.50;;;;;;5005770;28;20029;-79
2021/12/06 09:36:59;;;;;;;16.48;9.00;;;3.00;92.50;;;;;;4971107;28;20123;-78
2021/12/06 09:39:24;;;;;;;25.65;11.27;;;3.10;92.50;;;;;;4964572;28;20101;-80
2021/12/06 09:41:50;;;;;;;27.58;12.32;;;3.10;92.50;;;;;;4962086;28;20161;-81
2021/12/06 09:44:15;;;;;;;17.65;9.27;;;3.10;92.50;;;;;;4961136;28;20492;-79
2021/12/06 09:46:42;;;;;;;16.30;8.68;;;3.20;92.50;;;;;;4962682;28;20038;-80
2021/12/06 09:49:10;;;;;;;16.52;8.77;;;3.20;92.50;;;;;;4979727;28;20040;-80
2021/12/06 09:51:36;;;;;;;17.73;9.48;;;3.20;92.50;;;;;;4975020;28;20759;-77
2021/12/06 09:54:02;;;;;;;24.25;11.88;;;3.30;92.50;;;;;;4963909;28;20034;-80
2021/12/06 09:56:48;;;;;;;22.30;9.48;;;3.30;92.50;;;;;;4961613;28;20044;-81
2021/12/06 09:59:15;;;;;;;21.27;9.57;;;3.40;92.50;;;;;;4975035;28;20041;-80
2021/12/06 10:01:50;;;;;;;18.20;8.50;;;3.40;92.50;;;;;;4963585;28;20075;-79
2021/12/06 10:04:20;;;;;;;15.68;8.65;;;3.40;92.50;;;;;;4950377;28;20027;-79
2021/12/06 10:06:46;;;;;;;35.25;18.48;;;3.40;92.50;;;;;;4975328;28;20046;-81
2021/12/06 10:09:12;;;;;;;19.45;10.55;;;3.50;92.50;;;;;;4967501;28;20503;-81
2021/12/06 10:11:37;;;;;;;19.20;9.75;;;3.50;92.50;;;;;;4978492;28;20050;-81
2021/12/06 10:14:03;;;;;;;19.08;10.40;;;3.50;92.50;;;;;;4974335;28;20043;-80
2021/12/06 10:16:29;;;;;;;34.22;16.63;;;3.60;92.50;;;;;;4954485;28;20093;-79
2021/12/06 10:18:54;;;;;;;27.92;15.13;;;3.60;92.50;;;;;;4959903;28;20038;-80
2021/12/06 10:21:20;;;;;;;16.55;9.85;;;3.70;92.60;;;;;;4946133;28;20065;-79
2021/12/06 10:23:46;;;;;;;17.17;9.73;;;3.70;92.50;;;;;;4965571;28;20114;-81
2021/12/06 10:26:13;;;;;;;18.42;9.85;;;3.80;92.60;;;;;;4965817;28;20030;-79
2021/12/06 10:28:41;;;;;;;25.85;13.32;;;3.90;92.90;;;;;;4962642;28;20588;-80
2021/12/06 10:31:07;;;;;;;18.95;9.75;;;3.90;92.50;;;;;;4981729;28;21472;-79
2021/12/06 10:33:39;;;;;;;19.55;11.35;;;4.00;92.60;;;;;;4936070;28;20046;-80
2021/12/06 10:36:10;;;;;;;32.03;17.05;;;4.20;92.70;;;;;;4982495;28;20026;-80
2021/12/06 10:38:39;;;;;;;43.50;12.50;;;4.30;92.60;;;;;;4950803;28;20042;-80
2021/12/06 10:41:13;;;;;;;69.93;14.30;;;4.40;92.60;;;;;;4972309;28;20401;-79
2021/12/06 10:43:39;;;;;;;25.10;10.77;;;4.50;92.60;;;;;;4976206;28;20093;-79
2021/12/06 10:46:05;;;;;;;13.02;8.07;;;4.60;92.60;;;;;;4969945;28;20128;-79
2021/12/06 10:48:33;;;;;;;18.92;10.75;;;4.70;92.50;;;;;;4999766;28;20042;-79
2021/12/06 10:51:01;;;;;;;20.50;9.65;;;4.80;92.40;;;;;;5002524;28;20052;-79
2021/12/06 10:53:35;;;;;;;17.10;8.55;;;4.90;92.40;;;;;;4944049;28;20120;-79
2021/12/06 10:56:01;;;;;;;19.83;9.02;;;4.90;92.40;;;;;;4982250;28;20054;-80
2021/12/06 10:58:28;;;;;;;15.02;8.55;;;5.00;92.30;;;;;;4987141;28;20068;-78
2021/12/06 11:01:11;;;;;;;17.88;9.13;;;5.10;92.40;;;;;;5006772;28;20520;-79
2021/12/06 11:04:03;;;;;;;15.73;8.80;;;5.20;92.30;;;;;;4993095;28;20033;-79
2021/12/06 11:06:42;;;;;;;17.95;10.25;;;5.30;92.30;;;;;;4996989;28;20632;-80
2021/12/06 11:09:09;;;;;;;16.20;8.25;;;5.40;92.20;;;;;;4999266;28;20124;-79
2021/12/06 11:11:37;;;;;;;15.60;8.75;;;5.40;92.10;;;;;;4949589;28;20042;-80
2021/12/06 11:14:11;;;;;;;15.07;8.02;;;5.50;92.10;;;;;;5019276;28;20053;-78
2021/12/06 11:16:41;;;;;;;39.83;19.08;;;5.60;92.10;;;;;;4997425;28;20038;-78
2021/12/06 11:19:08;;;;;;;14.93;8.02;;;5.60;92.00;;;;;;4978450;28;20096;-79
2021/12/06 11:21:34;;;;;;;25.15;13.30;;;5.60;92.00;;;;;;4975786;28;20122;-79
2021/12/06 11:24:10;;;;;;;16.75;8.52;;;5.60;91.90;;;;;;4998379;28;20152;-79
2021/12/06 11:26:38;;;;;;;14.32;7.93;;;5.70;91.90;;;;;;4968737;28;20042;-79
2021/12/06 11:29:15;;;;;;;13.95;7.43;;;5.70;91.90;;;;;;4982439;28;20084;-79
2021/12/06 11:31:43;;;;;;;14.48;7.72;;;5.70;91.80;;;;;;4994271;28;20053;-79
2021/12/06 11:34:08;;;;;;;11.48;6.75;;;5.70;91.80;;;;;;5016534;28;20575;-79
2021/12/06 11:36:34;;;;;;;11.57;6.35;;;5.70;91.80;;;;;;4984928;28;20056;-80
2021/12/06 11:39:16;;;;;;;13.57;7.72;;;5.70;91.70;;;;;;4989950;28;20034;-78
2021/12/06 11:41:44;;;;;;;11.50;7.13;;;5.70;91.70;;;;;;5003661;28;20038;-79
2021/12/06 11:44:20;;;;;;;12.80;7.60;;;5.70;91.70;;;;;;4990735;28;20484;-78
2021/12/06 11:46:46;;;;;;;12.27;6.80;;;5.70;91.70;;;;;;5000639;28;20118;-79
2021/12/06 11:49:20;;;;;;;14.45;7.43;;;5.70;91.70;;;;;;4961557;28;20349;-78
2021/12/06 11:51:46;;;;;;;10.40;6.40;;;5.70;91.70;;;;;;5003202;28;20061;-78
2021/12/06 11:54:11;;;;;;;11.55;6.90;;;5.70;91.70;;;;;;4980554;28;20042;-77
2021/12/06 11:56:43;;;;;;;11.95;5.97;;;5.70;91.70;;;;;;4991922;28;20034;-78
2021/12/06 11:59:09;;;;;;;9.93;5.88;;;5.80;91.70;;;;;;4975100;28;20033;-77
2021/12/06 12:01:40;;;;;;;8.45;5.53;;;5.90;91.80;;;;;;4978208;28;20127;-78
2021/12/06 12:04:08;;;;;;;10.82;6.07;;;6.00;91.70;;;;;;5010107;28;20033;-78
2021/12/06 12:06:36;;;;;;;9.88;5.82;;;6.10;91.80;;;;;;4953939;28;20030;-78
2021/12/06 12:09:19;;;;;;;10.80;6.30;;;6.20;91.70;;;;;;4979858;28;20041;-78
2021/12/06 12:12:00;;;;;;;10.38;6.78;;;6.30;91.80;;;;;;4991930;28;20105;-79
2021/12/06 12:14:45;;;;;;;44.85;37.60;;;6.50;91.70;;;;;;4995207;28;20118;-78
2021/12/06 12:17:22;;;;;;;19.08;12.20;;;6.60;91.70;;;;;;4978248;28;20042;-79
2021/12/06 12:19:49;;;;;;;48.10;43.35;;;6.70;91.70;;;;;;4980320;28;20057;-79
2021/12/06 12:22:15;;;;;;;9.25;6.18;;;7.00;91.80;;;;;;4958191;28;20050;-79
2021/12/06 12:24:42;;;;;;;9.75;5.93;;;7.20;91.50;;;;;;4989169;28;20034;-79
2021/12/06 12:27:24;;;;;;;8.23;4.75;;;7.30;91.40;;;;;;4995596;28;20120;-80
2021/12/06 12:29:51;;;;;;;7.88;5.47;;;7.30;91.10;;;;;;4982668;28;20034;-81
2021/12/06 12:32:17;;;;;;;7.50;5.22;;;7.40;91.00;;;;;;4979631;28;20409;-77
2021/12/06 12:34:45;;;;;;;8.60;5.72;;;7.40;90.90;;;;;;4963432;28;20033;-80
2021/12/06 12:37:12;;;;;;;9.15;5.15;;;7.40;90.80;;;;;;4989235;28;20060;-80
2021/12/06 12:39:38;;;;;;;7.55;5.30;;;7.30;90.60;;;;;;5002034;28;20046;-80
2021/12/06 12:42:05;;;;;;;11.52;6.50;;;7.30;90.60;;;;;;4992963;28;20034;-79
2021/12/06 12:44:48;;;;;;;9.15;6.05;;;7.30;90.50;;;;;;4957077;28;20068;-80
2021/12/06 12:47:19;;;;;;;11.68;5.57;;;7.20;90.30;;;;;;5000651;28;20053;-79
2021/12/06 12:49:49;;;;;;;8.95;5.78;;;7.20;90.40;;;;;;5002994;28;20687;-79
2021/12/06 12:52:16;;;;;;;7.57;4.80;;;7.10;90.50;;;;;;4956524;28;20054;-79
2021/12/06 12:54:43;;;;;;;11.52;6.13;;;7.10;90.50;;;;;;4966611;28;20057;-79
2021/12/06 12:57:13;;;;;;;10.32;4.75;;;7.00;90.40;;;;;;4964811;28;20044;-79
2021/12/06 12:59:54;;;;;;;6.47;4.68;;;7.00;90.50;;;;;;4978634;28;20076;-79